Time;durP1;ratioP1;P1;durP2;ratioP2;P2;SDS_P1;SDS_P2;PMS_P1;PMS_P2;Temp;Humidity;BMP_temperature;BMP_pressure;BME280_temperature;BME280_humidity;BME280_pressure;Samples;Min_cycle;Max_cycle;Signal;HPM_P1;HPM_P2
2022/05/10 00:01:00;;;;;;;15.57;14.10;;;14.80;99.90;;;;;;4904582;29;20450;-85
2022/05/10 00:03:33;;;;;;;15.40;14.10;;;14.70;99.90;;;;;;4904641;29;20573;-85
2022/05/10 00:06:01;;;;;;;16.00;14.50;;;14.70;99.90;;;;;;4892659;29;20465;-85
2022/05/10 00:08:34;;;;;;;15.97;14.57;;;14.60;99.90;;;;;;4886107;29;20453;-85
2022/05/10 00:11:02;;;;;;;15.60;14.13;;;14.60;99.90;;;;;;4884655;29;20496;-85
2022/05/10 00:13:29;;;;;;;15.60;14.20;;;14.60;99.90;;;;;;4885887;29;20486;-86
2022/05/10 00:15:58;;;;;;;14.40;13.20;;;14.50;99.90;;;;;;4885951;29;20464;-86
2022/05/10 00:18:29;;;;;;;14.67;13.47;;;14.50;99.90;;;;;;4885823;29;20469;-86
2022/05/10 00:20:57;;;;;;;14.43;13.03;;;14.50;99.90;;;;;;4884647;29;20460;-85
2022/05/10 00:23:25;;;;;;;14.90;13.80;;;14.50;99.90;;;;;;4885170;29;20485;-85
2022/05/10 00:25:53;;;;;;;13.80;12.60;;;14.40;99.90;;;;;;4885127;29;20465;-85
2022/05/10 00:28:22;;;;;;;14.73;13.33;;;14.40;99.90;;;;;;4884968;29;20462;-85
2022/05/10 00:30:49;;;;;;;13.90;12.80;;;14.40;99.90;;;;;;4884723;29;20493;-85
2022/05/10 00:33:23;;;;;;;15.60;14.30;;;14.40;99.90;;;;;;4885577;29;20476;-85
2022/05/10 00:35:50;;;;;;;15.40;14.20;;;14.30;99.90;;;;;;4885706;29;20548;-85
2022/05/10 00:38:17;;;;;;;15.43;14.13;;;14.30;99.90;;;;;;4885293;29;20461;-84
2022/05/10 00:40:44;;;;;;;14.43;13.30;;;14.20;99.90;;;;;;4886109;29;20463;-85
2022/05/10 00:43:19;;;;;;;15.87;14.47;;;14.20;99.90;;;;;;4885915;29;20476;-84
2022/05/10 00:45:53;;;;;;;14.50;13.00;;;14.20;99.90;;;;;;4903646;29;20471;-84
2022/05/10 00:48:28;;;;;;;14.53;13.13;;;14.20;99.90;;;;;;4902239;29;20455;-84
2022/05/10 00:51:01;;;;;;;14.43;13.23;;;14.10;99.90;;;;;;4904659;29;20502;-84
2022/05/10 00:53:36;;;;;;;14.10;12.90;;;14.10;99.90;;;;;;4887376;29;20492;-84
2022/05/10 00:56:07;;;;;;;16.40;14.80;;;14.10;99.90;;;;;;4900366;29;20468;-84
2022/05/10 00:58:44;;;;;;;14.40;13.33;;;14.10;99.90;;;;;;4903991;29;20888;-85
2022/05/10 01:01:16;;;;;;;14.80;13.23;;;14.10;99.90;;;;;;4888514;29;20484;-85
2022/05/10 01:03:52;;;;;;;14.60;13.50;;;14.00;99.90;;;;;;4890895;29;20479;-84
2022/05/10 01:06:25;;;;;;;15.90;14.60;;;14.00;99.90;;;;;;4904246;29;20451;-85
2022/05/10 01:09:01;;;;;;;14.90;13.60;;;14.00;99.90;;;;;;4901348;29;20586;-85
2022/05/10 01:11:33;;;;;;;14.70;13.60;;;13.90;99.90;;;;;;4894923;29;20486;-85
2022/05/10 01:14:06;;;;;;;15.03;13.77;;;13.90;99.90;;;;;;4904347;29;20486;-83
2022/05/10 01:16:33;;;;;;;16.30;14.90;;;13.90;99.90;;;;;;4896961;29;20461;-83
2022/05/10 01:19:02;;;;;;;15.47;14.17;;;13.90;99.90;;;;;;4884362;29;20831;-84
2022/05/10 01:21:44;;;;;;;15.00;13.80;;;13.90;99.90;;;;;;4886086;29;20460;-84
2022/05/10 01:24:38;;;;;;;15.23;14.13;;;13.90;99.90;;;;;;4895767;29;20484;-84
2022/05/10 01:27:38;;;;;;;16.73;15.13;;;13.80;99.90;;;;;;4903952;29;20460;-84
2022/05/10 01:30:10;;;;;;;16.53;15.23;;;13.80;99.90;;;;;;4886477;29;20492;-84
2022/05/10 01:35:32;;;;;;;16.60;15.30;;;13.80;99.90;;;;;;4885039;29;21029;-84
2022/05/10 01:38:04;;;;;;;18.00;14.43;;;13.70;99.90;;;;;;4884732;29;20463;-84
2022/05/10 01:40:35;;;;;;;15.30;14.00;;;13.70;99.90;;;;;;4885011;29;20459;-84
2022/05/10 01:43:07;;;;;;;16.70;15.30;;;13.70;99.90;;;;;;4903282;29;20457;-83
2022/05/10 01:45:40;;;;;;;14.80;13.60;;;13.70;99.90;;;;;;4899679;29;20495;-84
2022/05/10 01:48:10;;;;;;;16.97;15.67;;;13.70;99.90;;;;;;4886732;29;20460;-84
2022/05/10 01:50:42;;;;;;;16.20;14.80;;;13.70;99.90;;;;;;4886018;29;20850;-84
2022/05/10 01:53:14;;;;;;;17.43;15.73;;;13.70;99.90;;;;;;4906504;23;20840;-87
2022/05/10 01:55:43;;;;;;;16.10;14.70;;;13.60;99.90;;;;;;4902565;29;20481;-87
2022/05/10 01:58:12;;;;;;;14.97;13.70;;;13.60;99.90;;;;;;4904780;29;20456;-86
2022/05/10 02:00:44;;;;;;;16.93;15.53;;;13.60;99.90;;;;;;4928146;29;20454;-86
2022/05/10 02:03:16;;;;;;;15.23;13.73;;;13.60;99.90;;;;;;4926726;29;20493;-86
2022/05/10 02:05:51;;;;;;;16.67;15.27;;;13.60;99.90;;;;;;4909636;29;20443;-86
2022/05/10 02:08:28;;;;;;;15.73;14.43;;;13.60;99.90;;;;;;4927290;29;20453;-86
2022/05/10 02:10:58;;;;;;;17.97;16.33;;;13.50;99.90;;;;;;4928117;29;20497;-86
2022/05/10 02:13:31;;;;;;;15.17;13.87;;;13.50;99.90;;;;;;4928253;29;20474;-86
2022/05/10 02:16:04;;;;;;;14.93;13.73;;;13.50;99.90;;;;;;4914901;29;20451;-86
2022/05/10 02:18:35;;;;;;;16.47;14.87;;;13.50;99.90;;;;;;4909040;29;20499;-86
2022/05/10 02:21:10;;;;;;;16.20;14.87;;;13.40;99.90;;;;;;4922430;29;20450;-86
2022/05/10 02:23:43;;;;;;;14.67;13.47;;;13.50;99.90;;;;;;4928128;29;20488;-86
2022/05/10 02:26:12;;;;;;;15.17;13.80;;;13.40;99.90;;;;;;4914388;29;20452;-86
2022/05/10 02:28:44;;;;;;;16.57;14.90;;;13.40;99.90;;;;;;4909247;29;20470;-86
2022/05/10 02:31:17;;;;;;;15.20;14.00;;;13.40;99.90;;;;;;4922952;29;20474;-86
2022/05/10 02:33:46;;;;;;;15.37;13.97;;;13.40;99.90;;;;;;4928122;29;20478;-86
2022/05/10 02:36:13;;;;;;;17.10;15.60;;;13.40;99.90;;;;;;4914841;29;20461;-86
2022/05/10 02:38:41;;;;;;;20.00;17.87;;;13.30;99.90;;;;;;4908503;29;20458;-86
2022/05/10 02:41:11;;;;;;;18.07;16.37;;;13.30;99.90;;;;;;4908661;29;20993;-86
2022/05/10 02:43:47;;;;;;;19.43;17.60;;;13.30;99.90;;;;;;4916456;29;20478;-86
2022/05/10 02:46:15;;;;;;;16.97;15.47;;;13.30;99.90;;;;;;4927907;29;20435;-86
2022/05/10 02:48:45;;;;;;;19.00;17.30;;;13.20;99.90;;;;;;4919557;29;20491;-86
2022/05/10 02:51:11;;;;;;;18.47;16.97;;;13.20;99.90;;;;;;4908721;29;20478;-85
2022/05/10 02:53:38;;;;;;;17.63;15.93;;;13.20;99.90;;;;;;4924137;29;20492;-86
2022/05/10 02:56:07;;;;;;;18.50;16.90;;;13.20;99.90;;;;;;4928240;29;20465;-86
2022/05/10 02:58:39;;;;;;;15.73;14.23;;;13.20;99.90;;;;;;4928162;29;20458;-86
2022/05/10 03:01:10;;;;;;;18.03;16.37;;;13.20;99.90;;;;;;4890135;29;20540;-86
2022/05/10 03:03:38;;;;;;;16.87;15.33;;;13.20;99.90;;;;;;4918636;29;20493;-85
2022/05/10 03:06:05;;;;;;;17.33;15.73;;;13.20;99.90;;;;;;4917276;29;20459;-86
2022/05/10 03:08:32;;;;;;;17.77;16.17;;;13.20;99.90;;;;;;4909542;29;20459;-85
2022/05/10 03:10:59;;;;;;;19.63;17.83;;;13.20;99.90;;;;;;4924916;29;20461;-85
2022/05/10 03:13:26;;;;;;;17.43;16.03;;;13.10;99.90;;;;;;4924658;29;20478;-86
2022/05/10 03:15:53;;;;;;;21.60;17.53;;;13.20;99.90;;;;;;4920893;29;20462;-85
2022/05/10 03:18:20;;;;;;;20.20;18.40;;;13.20;99.90;;;;;;4906685;29;20462;-86
2022/05/10 03:20:48;;;;;;;19.07;17.27;;;13.10;99.90;;;;;;4923482;29;20838;-86
2022/05/10 03:23:14;;;;;;;18.00;16.43;;;13.10;99.90;;;;;;4924602;29;20475;-86
2022/05/10 03:25:41;;;;;;;18.40;16.80;;;13.10;99.90;;;;;;4924482;29;20550;-86
2022/05/10 03:28:08;;;;;;;18.00;16.37;;;13.10;99.90;;;;;;4925040;29;20454;-86
2022/05/10 03:30:35;;;;;;;16.67;15.20;;;13.10;99.90;;;;;;4925051;29;20905;-86
2022/05/10 03:33:02;;;;;;;17.07;15.67;;;13.10;99.90;;;;;;4925006;29;20490;-86
2022/05/10 03:35:29;;;;;;;16.47;15.13;;;13.10;99.90;;;;;;4924252;29;20838;-86
2022/05/10 03:37:57;;;;;;;16.43;15.03;;;13.10;99.90;;;;;;4919961;29;20459;-86
2022/05/10 03:40:24;;;;;;;18.30;16.70;;;12.90;99.90;;;;;;4905790;29;20465;-85
2022/05/10 03:42:52;;;;;;;19.00;17.30;;;12.90;99.90;;;;;;4913445;29;20477;-86
2022/05/10 03:45:21;;;;;;;17.60;16.03;;;12.80;99.90;;;;;;4925383;29;20490;-86
2022/05/10 03:47:48;;;;;;;16.57;15.17;;;12.80;99.90;;;;;;4916897;29;20459;-86
2022/05/10 03:50:16;;;;;;;19.20;17.47;;;12.80;99.90;;;;;;4906176;29;20447;-86
2022/05/10 03:52:43;;;;;;;19.70;18.20;;;12.70;99.90;;;;;;4906376;29;20449;-86
2022/05/10 03:55:14;;;;;;;18.00;16.30;;;12.80;99.90;;;;;;4906088;29;20465;-86
2022/05/10 03:57:42;;;;;;;18.13;16.53;;;12.80;99.90;;;;;;4906481;29;20438;-86
2022/05/10 04:00:11;;;;;;;17.23;15.73;;;12.70;99.90;;;;;;4905912;29;20451;-85
2022/05/10 04:02:38;;;;;;;17.97;16.37;;;12.70;99.90;;;;;;4919622;29;20491;-86
2022/05/10 04:05:06;;;;;;;18.27;16.47;;;12.70;99.90;;;;;;4924779;29;20450;-86
2022/05/10 04:07:32;;;;;;;18.27;16.47;;;12.70;99.90;;;;;;4920134;29;20465;-86
2022/05/10 04:09:59;;;;;;;17.50;15.90;;;12.70;99.90;;;;;;4913713;29;20467;-86
2022/05/10 04:12:27;;;;;;;17.50;15.83;;;12.70;99.90;;;;;;4924889;29;20797;-86
2022/05/10 04:14:54;;;;;;;16.87;15.30;;;12.70;99.90;;;;;;4917923;29;20458;-86
2022/05/10 04:17:21;;;;;;;17.30;15.90;;;12.70;99.90;;;;;;4906608;29;20459;-86
2022/05/10 04:19:48;;;;;;;16.97;15.27;;;12.70;99.90;;;;;;4905814;29;20455;-85
2022/05/10 04:22:15;;;;;;;17.23;15.73;;;12.80;99.90;;;;;;4921473;29;20501;-86
2022/05/10 04:24:42;;;;;;;15.70;14.30;;;12.80;99.90;;;;;;4925126;29;20489;-86
2022/05/10 04:27:09;;;;;;;16.13;14.80;;;12.80;99.90;;;;;;4909387;29;20455;-85
2022/05/10 04:29:37;;;;;;;16.37;14.70;;;12.80;99.90;;;;;;4906051;29;20483;-85
2022/05/10 04:32:05;;;;;;;15.50;14.20;;;12.90;99.90;;;;;;4905724;29;20474;-86
2022/05/10 04:34:31;;;;;;;16.20;14.60;;;12.90;99.90;;;;;;4908735;29;20482;-85
2022/05/10 04:36:58;;;;;;;17.87;16.10;;;13.00;99.90;;;;;;4905161;29;20451;-86
2022/05/10 04:41:24;;;;;;;17.10;15.50;;;13.00;99.90;;;;;;4905052;29;20817;-86
2022/05/10 04:42:11;;;;;;;17.70;16.07;;;13.00;99.90;;;;;;4908593;29;20494;-86
2022/05/10 04:44:39;;;;;;;16.60;15.27;;;13.10;99.90;;;;;;4924743;29;20474;-86
2022/05/10 04:47:05;;;;;;;17.13;15.63;;;13.20;99.90;;;;;;4921363;29;20219;-86
2022/05/10 04:49:32;;;;;;;17.60;16.10;;;13.20;99.90;;;;;;4904648;29;20464;-86
2022/05/10 04:51:59;;;;;;;18.40;16.80;;;13.30;99.90;;;;;;4905061;29;20485;-86
2022/05/10 04:54:25;;;;;;;20.37;18.37;;;13.30;99.90;;;;;;4904660;29;20497;-86
2022/05/10 04:56:53;;;;;;;21.40;19.47;;;13.40;99.90;;;;;;4907931;29;20985;-86
2022/05/10 04:59:20;;;;;;;20.90;18.90;;;13.50;99.90;;;;;;4923467;29;20968;-86
2022/05/10 05:01:48;;;;;;;19.33;17.47;;;13.50;99.90;;;;;;4923367;29;20490;-85
2022/05/10 05:04:14;;;;;;;18.50;16.97;;;13.60;99.90;;;;;;4923871;29;20475;-86
2022/05/10 05:06:41;;;;;;;20.10;18.30;;;13.70;99.90;;;;;;4922397;29;20978;-86
2022/05/10 05:09:08;;;;;;;18.03;16.43;;;13.70;99.90;;;;;;4923679;29;20462;-85
2022/05/10 05:11:35;;;;;;;18.83;16.83;;;13.70;99.90;;;;;;4921940;29;20454;-86
2022/05/10 05:14:02;;;;;;;19.67;17.60;;;13.80;99.90;;;;;;4922646;29;20482;-86
2022/05/10 05:16:28;;;;;;;19.00;17.30;;;13.90;99.90;;;;;;4909274;29;20472;-85
2022/05/10 05:18:56;;;;;;;19.97;17.87;;;14.00;99.90;;;;;;4904115;29;20837;-83
2022/05/10 05:21:23;;;;;;;20.33;17.43;;;14.00;99.90;;;;;;4922399;29;20495;-85
2022/05/10 05:23:50;;;;;;;17.57;15.97;;;14.10;99.90;;;;;;4922637;29;20478;-85
2022/05/10 05:26:18;;;;;;;28.70;18.47;;;14.20;99.90;;;;;;4904118;29;20464;-85
2022/05/10 05:28:45;;;;;;;18.33;16.43;;;14.30;99.90;;;;;;4903969;29;20488;-85
2022/05/10 05:31:13;;;;;;;24.13;18.30;;;14.40;99.90;;;;;;4902944;29;20455;-86
2022/05/10 05:33:40;;;;;;;18.47;16.10;;;14.50;99.90;;;;;;4915968;29;20487;-85
2022/05/10 05:36:08;;;;;;;18.67;16.60;;;14.60;99.90;;;;;;4922420;29;20459;-85
2022/05/10 05:38:35;;;;;;;19.10;17.13;;;14.60;99.90;;;;;;4923176;29;20991;-86
2022/05/10 05:41:02;;;;;;;20.13;18.03;;;14.80;99.90;;;;;;4917484;29;20468;-85
2022/05/10 05:43:29;;;;;;;18.63;16.63;;;14.80;99.90;;;;;;4904053;29;20508;-86
2022/05/10 05:45:56;;;;;;;19.80;17.73;;;14.90;99.90;;;;;;4907976;29;20565;-85
2022/05/10 05:48:23;;;;;;;19.00;17.20;;;15.00;99.90;;;;;;4922210;29;20461;-85
2022/05/10 05:50:49;;;;;;;16.93;14.97;;;15.10;99.90;;;;;;4919163;29;20464;-85
2022/05/10 05:53:17;;;;;;;17.23;15.67;;;15.20;99.90;;;;;;4902751;29;20484;-85
2022/05/10 05:55:47;;;;;;;17.27;15.67;;;15.30;99.90;;;;;;4919936;29;20853;-85
2022/05/10 05:58:14;;;;;;;19.40;17.33;;;15.40;99.90;;;;;;4921467;29;20488;-85
2022/05/10 06:00:42;;;;;;;16.90;15.23;;;15.50;99.90;;;;;;4921710;29;20460;-87
2022/05/10 06:03:09;;;;;;;18.73;16.90;;;15.60;99.90;;;;;;4908909;29;20856;-86
2022/05/10 06:05:36;;;;;;;18.23;16.63;;;15.60;99.90;;;;;;4903412;29;20481;-86
2022/05/10 06:08:03;;;;;;;18.10;16.40;;;15.60;99.90;;;;;;4903634;29;20456;-86
2022/05/10 06:10:32;;;;;;;18.03;16.10;;;15.80;99.90;;;;;;4903817;29;20455;-87
2022/05/10 06:13:01;;;;;;;17.80;16.20;;;15.90;99.90;;;;;;4903101;29;20479;-86
2022/05/10 06:15:28;;;;;;;16.70;15.23;;;15.90;99.90;;;;;;4904488;29;20545;-86
2022/05/10 06:17:56;;;;;;;17.80;15.90;;;16.00;99.90;;;;;;4904079;29;20882;-86
2022/05/10 06:20:24;;;;;;;13.97;12.87;;;16.10;99.90;;;;;;4904343;29;20946;-85
2022/05/10 06:22:51;;;;;;;15.00;13.70;;;16.20;99.90;;;;;;4905049;29;20526;-86
2022/05/10 06:25:20;;;;;;;15.57;13.90;;;16.30;99.90;;;;;;4906530;29;20539;-84
2022/05/10 06:27:50;;;;;;;14.73;13.53;;;16.30;99.90;;;;;;4908520;29;20483;-85
2022/05/10 06:30:19;;;;;;;15.47;14.10;;;16.30;99.90;;;;;;4906237;29;20554;-86
2022/05/10 06:32:46;;;;;;;15.37;14.07;;;16.50;99.90;;;;;;4905588;29;20449;-86
2022/05/10 06:35:13;;;;;;;14.73;13.53;;;16.60;99.90;;;;;;4904716;29;20453;-84
2022/05/10 06:40:24;;;;;;;14.73;13.50;;;16.90;99.90;;;;;;4904953;29;20426;-86
2022/05/10 06:42:52;;;;;;;14.60;13.30;;;17.00;99.90;;;;;;4905092;29;20579;-85
2022/05/10 06:45:20;;;;;;;12.17;11.30;;;17.20;99.90;;;;;;4905366;29;20896;-86
2022/05/10 06:47:49;;;;;;;12.60;11.53;;;17.20;99.90;;;;;;4908077;29;20457;-86
2022/05/10 06:50:20;;;;;;;11.37;10.30;;;17.20;99.90;;;;;;4908458;29;20528;-86
2022/05/10 06:52:49;;;;;;;14.17;13.00;;;17.30;99.90;;;;;;4908364;29;20492;-86
2022/05/10 06:55:16;;;;;;;12.17;11.23;;;17.50;99.90;;;;;;4908511;29;20527;-86
2022/05/10 06:57:42;;;;;;;10.70;9.90;;;17.70;99.90;;;;;;4908032;29;20458;-85
2022/05/10 07:00:13;;;;;;;12.47;11.43;;;17.90;99.90;;;;;;4908106;29;20488;-86
2022/05/10 07:02:40;;;;;;;11.23;10.23;;;18.00;99.90;;;;;;4908128;29;20494;-86
2022/05/10 07:05:08;;;;;;;12.87;11.80;;;18.10;99.90;;;;;;4907857;29;20458;-85
2022/05/10 07:07:35;;;;;;;11.63;10.73;;;18.20;99.90;;;;;;4907420;29;20461;-86
2022/05/10 07:10:02;;;;;;;10.80;10.00;;;18.30;99.90;;;;;;4908448;29;20461;-86
2022/05/10 07:12:28;;;;;;;10.77;9.87;;;18.40;99.90;;;;;;4908257;29;20807;-85
2022/05/10 07:14:55;;;;;;;11.40;10.50;;;18.60;99.90;;;;;;4908010;29;20466;-85
2022/05/10 07:17:23;;;;;;;10.70;9.90;;;18.50;99.90;;;;;;4907840;29;20463;-85
2022/05/10 07:19:50;;;;;;;10.37;9.67;;;18.60;99.90;;;;;;4908262;29;20466;-85
2022/05/10 07:22:16;;;;;;;11.13;10.00;;;18.80;99.90;;;;;;4907718;29;20840;-85
2022/05/10 07:24:43;;;;;;;10.17;9.47;;;18.90;99.90;;;;;;4907483;29;20471;-84
2022/05/10 07:27:10;;;;;;;10.70;9.70;;;18.80;99.90;;;;;;4907862;29;20466;-85
2022/05/10 07:29:37;;;;;;;11.70;10.60;;;19.00;99.90;;;;;;4907715;29;20455;-83
2022/05/10 07:32:04;;;;;;;10.57;9.83;;;19.10;99.90;;;;;;4907351;29;20462;-85
2022/05/10 07:34:32;;;;;;;11.00;10.00;;;19.20;99.90;;;;;;4907449;29;20485;-83
2022/05/10 07:36:59;;;;;;;10.67;9.87;;;19.20;99.90;;;;;;4907772;29;20464;-86
2022/05/10 07:39:26;;;;;;;10.90;9.90;;;19.30;99.70;;;;;;4907523;29;20451;-86
2022/05/10 07:41:53;;;;;;;11.00;9.90;;;19.30;99.50;;;;;;4907575;29;20487;-86
2022/05/10 07:44:21;;;;;;;10.80;9.80;;;19.20;99.40;;;;;;4907402;29;20475;-86
2022/05/10 07:46:48;;;;;;;11.23;10.10;;;19.30;99.20;;;;;;4907917;29;20454;-86
2022/05/10 07:49:14;;;;;;;11.30;10.30;;;19.30;99.30;;;;;;4907910;29;20471;-87
2022/05/10 07:51:42;;;;;;;10.27;9.57;;;19.50;99.30;;;;;;4907826;29;20462;-86
2022/05/10 07:54:16;;;;;;;10.37;9.57;;;19.50;99.20;;;;;;4926859;23;20884;-84
2022/05/10 07:56:52;;;;;;;9.97;9.03;;;19.60;99.20;;;;;;4900056;29;20443;-84
2022/05/10 07:59:18;;;;;;;10.70;9.80;;;19.60;98.80;;;;;;4900338;29;20463;-86
2022/05/10 08:01:45;;;;;;;9.80;9.10;;;19.70;98.60;;;;;;4904409;29;20462;-86
2022/05/10 08:04:12;;;;;;;10.30;9.60;;;19.90;98.50;;;;;;4904996;29;20852;-85
2022/05/10 08:06:39;;;;;;;9.50;8.90;;;20.00;98.70;;;;;;4905021;29;20455;-85
2022/05/10 08:09:07;;;;;;;10.40;9.60;;;20.10;98.00;;;;;;4904261;29;20976;-85
2022/05/10 08:11:33;;;;;;;9.97;9.07;;;20.20;97.50;;;;;;4903948;29;20467;-85
2022/05/10 08:14:00;;;;;;;10.33;9.47;;;20.30;97.90;;;;;;4905299;29;20476;-84
2022/05/10 08:16:31;;;;;;;10.00;9.30;;;20.40;98.20;;;;;;4904484;29;20492;-85
2022/05/10 08:18:57;;;;;;;10.67;9.87;;;20.50;98.30;;;;;;4905158;29;20467;-85
2022/05/10 08:21:24;;;;;;;10.27;9.47;;;20.60;98.20;;;;;;4903502;29;20468;-84
2022/05/10 08:23:59;;;;;;;10.87;10.07;;;20.70;97.30;;;;;;4903814;29;20468;-85
2022/05/10 08:26:59;;;;;;;12.30;11.40;;;20.80;98.20;;;;;;4904084;29;20451;-84
2022/05/10 08:29:26;;;;;;;10.93;10.13;;;20.80;98.30;;;;;;4904483;29;20459;-84
2022/05/10 08:31:58;;;;;;;11.13;10.23;;;20.90;97.70;;;;;;4901765;29;20464;-83
2022/05/10 08:34:25;;;;;;;11.30;10.10;;;21.00;97.50;;;;;;4901133;29;20571;-84
2022/05/10 08:36:52;;;;;;;10.53;9.77;;;20.90;97.40;;;;;;4900610;29;20469;-84
2022/05/10 08:39:19;;;;;;;10.87;9.97;;;21.00;98.00;;;;;;4899862;29;20512;-84
2022/05/10 08:41:52;;;;;;;10.53;9.73;;;21.20;97.10;;;;;;4900698;29;20902;-85
2022/05/10 08:44:21;;;;;;;10.20;9.50;;;21.40;96.50;;;;;;4900087;29;20487;-85
2022/05/10 08:46:53;;;;;;;10.00;9.30;;;21.40;96.00;;;;;;4903732;29;20555;-85
2022/05/10 08:49:24;;;;;;;10.80;9.80;;;21.40;96.20;;;;;;4903472;29;20462;-84
2022/05/10 08:51:53;;;;;;;10.47;9.70;;;21.50;97.20;;;;;;4903172;29;20461;-84
2022/05/10 08:54:20;;;;;;;10.07;9.07;;;21.60;97.20;;;;;;4902749;29;20478;-84
2022/05/10 08:56:53;;;;;;;9.63;8.83;;;21.70;95.90;;;;;;4903011;29;20461;-85
2022/05/10 08:59:33;;;;;;;9.10;8.47;;;21.90;97.70;;;;;;4903048;29;20461;-85
2022/05/10 09:02:13;;;;;;;9.93;9.10;;;22.00;95.70;;;;;;4903103;29;20456;-84
2022/05/10 09:04:51;;;;;;;10.80;9.90;;;22.10;95.00;;;;;;4902413;29;20477;-84
2022/05/10 09:07:29;;;;;;;10.30;9.50;;;22.30;94.60;;;;;;4902827;29;20450;-85
2022/05/10 09:10:04;;;;;;;8.90;8.30;;;22.30;94.90;;;;;;4901476;29;20437;-85
2022/05/10 09:12:42;;;;;;;9.10;8.40;;;22.40;94.00;;;;;;4902175;29;20504;-84
2022/05/10 09:15:11;;;;;;;9.17;8.53;;;22.40;94.00;;;;;;4902878;29;20493;-84
2022/05/10 09:17:39;;;;;;;8.27;7.57;;;22.50;92.90;;;;;;4902394;29;20556;-84
2022/05/10 09:20:09;;;;;;;8.53;8.03;;;22.60;92.90;;;;;;4900916;29;20454;-84
2022/05/10 09:22:59;;;;;;;9.30;8.50;;;22.70;93.00;;;;;;4902151;29;20478;-84
2022/05/10 09:25:33;;;;;;;8.53;7.60;;;22.80;93.90;;;;;;4901231;29;20443;-84
2022/05/10 09:28:10;;;;;;;10.00;9.27;;;22.90;93.60;;;;;;4900348;29;20497;-84
2022/05/10 09:30:38;;;;;;;8.30;7.60;;;23.10;91.90;;;;;;4904586;29;20478;-84
2022/05/10 09:36:22;;;;;;;9.10;8.50;;;23.40;92.10;;;;;;4869315;29;20464;-84
2022/05/10 09:38:51;;;;;;;7.97;7.37;;;23.60;91.10;;;;;;4903530;29;20541;-85
2022/05/10 09:41:28;;;;;;;8.50;7.73;;;23.70;92.40;;;;;;4903411;29;20492;-85
2022/05/10 09:43:57;;;;;;;7.57;7.00;;;23.80;90.00;;;;;;4903500;29;20483;-85
2022/05/10 09:46:27;;;;;;;7.03;6.63;;;23.90;89.90;;;;;;4902806;29;20460;-85
2022/05/10 09:48:55;;;;;;;7.53;7.03;;;24.00;85.20;;;;;;4903062;29;20468;-85
2022/05/10 09:51:33;;;;;;;6.60;6.10;;;24.00;85.80;;;;;;4902423;29;20824;-84
2022/05/10 09:54:03;;;;;;;6.73;6.33;;;24.20;84.40;;;;;;4902113;29;21015;-85
2022/05/10 09:56:36;;;;;;;6.67;6.27;;;24.20;82.00;;;;;;4901593;29;20460;-84
2022/05/10 09:59:10;;;;;;;7.30;6.80;;;24.10;79.50;;;;;;4900647;29;20543;-85
2022/05/10 10:01:40;;;;;;;6.80;6.30;;;24.20;80.50;;;;;;4899009;29;20454;-85
2022/05/10 10:04:17;;;;;;;6.20;5.80;;;24.40;82.10;;;;;;4905258;29;20478;-85
2022/05/10 10:06:45;;;;;;;6.13;5.70;;;24.50;75.80;;;;;;4920560;29;20448;-85
2022/05/10 10:09:30;;;;;;;5.40;4.97;;;24.60;72.10;;;;;;4915651;29;20492;-84
2022/05/10 10:11:57;;;;;;;5.87;5.47;;;24.60;72.70;;;;;;4905078;29;20973;-84
2022/05/10 10:14:39;;;;;;;5.90;5.50;;;24.60;72.70;;;;;;4904534;29;20530;-84
2022/05/10 10:17:08;;;;;;;5.50;5.20;;;24.60;71.50;;;;;;4903560;29;20539;-84
2022/05/10 10:19:40;;;;;;;6.73;6.07;;;24.80;72.40;;;;;;4900065;29;20888;-84
2022/05/10 10:22:11;;;;;;;5.70;5.30;;;24.90;74.00;;;;;;4905038;29;20463;-83
2022/05/10 10:24:44;;;;;;;7.00;6.50;;;24.80;69.40;;;;;;4907474;29;20477;-84
2022/05/10 10:27:18;;;;;;;6.43;5.87;;;25.20;73.30;;;;;;4907171;29;20530;-83
2022/05/10 10:29:52;;;;;;;5.70;5.40;;;25.50;76.70;;;;;;4910496;29;20460;-84
2022/05/10 10:32:24;;;;;;;5.77;5.37;;;25.70;69.60;;;;;;4906361;29;20496;-84
2022/05/10 10:34:56;;;;;;;6.27;5.67;;;25.90;67.90;;;;;;4906885;29;20481;-84
2022/05/10 10:37:29;;;;;;;6.60;6.20;;;26.20;68.20;;;;;;4906554;29;20541;-84
2022/05/10 10:40:07;;;;;;;6.70;6.13;;;26.40;68.20;;;;;;4907215;29;20459;-84
2022/05/10 10:42:40;;;;;;;5.87;5.37;;;26.70;68.90;;;;;;4906988;29;20807;-84
2022/05/10 10:45:14;;;;;;;5.80;5.40;;;26.90;63.20;;;;;;4906559;29;20479;-84
2022/05/10 10:47:47;;;;;;;5.30;4.90;;;27.20;63.50;;;;;;4906999;29;20492;-84
2022/05/10 10:50:20;;;;;;;7.47;6.90;;;27.40;59.50;;;;;;4906243;29;20464;-84
2022/05/10 10:52:48;;;;;;;5.57;5.17;;;27.70;63.90;;;;;;4905406;29;20460;-84
2022/05/10 10:55:18;;;;;;;6.23;5.83;;;27.80;57.70;;;;;;4905272;29;20502;-84
2022/05/10 10:58:01;;;;;;;5.63;5.33;;;28.20;57.90;;;;;;4906140;29;20467;-84
2022/05/10 11:00:34;;;;;;;5.60;5.10;;;28.50;55.90;;;;;;4903416;29;20566;-84
2022/05/10 11:03:09;;;;;;;4.87;4.57;;;28.80;54.50;;;;;;4901166;29;20974;-84
2022/05/10 11:06:13;;;;;;;5.33;4.93;;;29.30;54.40;;;;;;4901016;29;20561;-84
2022/05/10 11:08:53;;;;;;;5.60;5.20;;;29.90;52.50;;;;;;4903056;29;21031;-84
2022/05/10 11:11:31;;;;;;;7.37;5.63;;;30.00;53.00;;;;;;4902813;29;20473;-84
2022/05/10 11:14:07;;;;;;;5.27;4.87;;;29.70;52.00;;;;;;4900664;29;20559;-84
2022/05/10 11:19:49;;;;;;;5.43;5.07;;;30.80;53.10;;;;;;4903143;29;20537;-85
2022/05/10 11:22:29;;;;;;;5.80;5.30;;;31.30;50.80;;;;;;4905199;29;20471;-84
2022/05/10 11:25:08;;;;;;;5.77;5.27;;;31.90;49.00;;;;;;4904358;29;20467;-85
2022/05/10 11:27:48;;;;;;;5.67;5.30;;;32.40;50.10;;;;;;4902821;29;20451;-85
2022/05/10 11:30:18;;;;;;;9.30;6.13;;;32.50;48.60;;;;;;4902860;29;20537;-85
2022/05/10 11:33:10;;;;;;;5.37;5.07;;;32.50;47.80;;;;;;4902735;29;20463;-84
2022/05/10 11:35:51;;;;;;;5.37;5.07;;;32.30;48.70;;;;;;4903424;29;20460;-84
2022/05/10 11:38:33;;;;;;;6.13;5.50;;;32.40;48.20;;;;;;4904203;29;20457;-85
2022/05/10 11:41:15;;;;;;;6.10;5.70;;;32.70;45.80;;;;;;4903415;29;20452;-84
2022/05/10 11:44:11;;;;;;;5.80;5.40;;;32.60;44.20;;;;;;4904098;29;20882;-84
2022/05/10 11:47:21;;;;;;;5.40;4.97;;;32.00;42.80;;;;;;4901625;29;20463;-85
2022/05/10 11:50:18;;;;;;;5.43;5.13;;;32.30;46.80;;;;;;4902457;29;20452;-84
2022/05/10 11:53:17;;;;;;;4.93;4.67;;;32.90;42.90;;;;;;4901883;29;20480;-85
2022/05/10 11:55:52;;;;;;;4.37;4.13;;;33.00;43.00;;;;;;4902636;29;20811;-85
2022/05/10 11:58:21;;;;;;;4.90;4.57;;;32.10;39.70;;;;;;4901606;29;20460;-84
2022/05/10 12:00:51;;;;;;;5.23;4.93;;;31.90;41.80;;;;;;4903439;29;20876;-84
2022/05/10 12:03:57;;;;;;;5.30;4.90;;;30.40;42.70;;;;;;4903941;29;20472;-85
2022/05/10 12:06:38;;;;;;;4.80;4.50;;;29.80;42.80;;;;;;4899293;29;20494;-84
2022/05/10 12:09:06;;;;;;;5.90;5.40;;;29.60;43.20;;;;;;4903849;29;20451;-85
2022/05/10 12:11:39;;;;;;;4.63;4.33;;;30.00;45.90;;;;;;4902416;29;21007;-84
2022/05/10 12:22:58;;;;;;;4.53;4.23;;;32.80;40.80;;;;;;4902193;29;20437;-85
2022/05/10 12:25:57;;;;;;;4.87;4.57;;;32.10;40.70;;;;;;4902690;29;20463;-84
2022/05/10 12:28:44;;;;;;;4.83;4.53;;;31.10;41.10;;;;;;4903540;29;20474;-84
2022/05/10 12:31:51;;;;;;;5.73;5.33;;;30.50;41.80;;;;;;4904035;29;20490;-84
2022/05/10 12:34:45;;;;;;;5.37;4.97;;;29.80;42.40;;;;;;4903061;29;20555;-84
2022/05/10 12:38:00;;;;;;;5.57;5.07;;;29.30;44.00;;;;;;4902041;29;20455;-84
2022/05/10 12:40:54;;;;;;;4.90;4.60;;;29.20;45.30;;;;;;4901956;29;20460;-84
2022/05/10 12:43:44;;;;;;;5.30;4.80;;;29.00;45.20;;;;;;4899755;29;20483;-84
2022/05/10 12:46:23;;;;;;;4.70;4.40;;;28.80;45.40;;;;;;4902086;29;20466;-84
2022/05/10 12:49:03;;;;;;;4.97;4.67;;;28.70;44.30;;;;;;4902786;29;20473;-84
2022/05/10 12:51:38;;;;;;;4.73;4.33;;;28.70;45.20;;;;;;4902571;29;20828;-84
2022/05/10 12:54:11;;;;;;;5.50;5.10;;;28.80;44.80;;;;;;4903236;29;20497;-85
2022/05/10 12:57:03;;;;;;;6.30;5.13;;;28.90;44.60;;;;;;4902109;29;20490;-84
2022/05/10 12:59:36;;;;;;;5.20;4.87;;;29.10;46.50;;;;;;4902953;29;20466;-85
2022/05/10 13:02:05;;;;;;;4.90;4.60;;;29.30;45.10;;;;;;4901470;29;20499;-84
2022/05/10 13:04:40;;;;;;;4.53;4.33;;;29.80;46.30;;;;;;4900916;29;20519;-84
2022/05/10 13:07:13;;;;;;;4.87;4.60;;;30.40;44.50;;;;;;4900642;29;20557;-84
2022/05/10 13:09:42;;;;;;;4.77;4.43;;;31.00;43.60;;;;;;4899809;29;21051;-85
2022/05/10 13:12:13;;;;;;;5.77;5.37;;;31.80;43.80;;;;;;4898869;29;20460;-84
2022/05/10 13:14:43;;;;;;;5.30;4.70;;;32.30;42.10;;;;;;4900052;29;20503;-84
2022/05/10 13:17:11;;;;;;;4.97;4.67;;;32.30;40.40;;;;;;4899539;29;20557;-85